Time;durP1;ratioP1;P1;durP2;ratioP2;P2;SDS_P1;SDS_P2;PMS_P1;PMS_P2;Temp;Humidity;BMP_temperature;BMP_pressure;BME280_temperature;BME280_humidity;BME280_pressure;Samples;Min_cycle;Max_cycle;Signal;HPM_P1;HPM_P2
2024/01/28 00:01:01;;;;;;;4.63;4.23;;;2.30;99.90;;;;;;5031145;28;20204;-69
2024/01/28 00:03:29;;;;;;;4.87;4.40;;;3.10;99.90;;;;;;5022785;28;20632;-69
2024/01/28 00:05:56;;;;;;;5.33;4.17;;;2.40;99.90;;;;;;5019841;28;20235;-68
2024/01/28 00:08:25;;;;;;;4.37;3.97;;;2.40;99.90;;;;;;5028693;28;20228;-69
2024/01/28 00:10:53;;;;;;;6.57;4.43;;;2.30;99.90;;;;;;5030010;28;20221;-69
2024/01/28 00:13:24;;;;;;;4.43;4.03;;;2.20;99.90;;;;;;5006501;28;20202;-69
2024/01/28 00:15:52;;;;;;;5.60;4.67;;;;;;;;;;5025637;28;20619;-69
2024/01/28 00:18:19;;;;;;;7.00;5.30;;;2.30;99.90;;;;;;4991548;28;20324;-69
2024/01/28 00:20:47;;;;;;;6.67;5.83;;;2.20;99.90;;;;;;4991585;28;20686;-69
2024/01/28 00:23:14;;;;;;;8.60;6.50;;;2.20;99.90;;;;;;4990746;28;20237;-69
2024/01/28 00:25:41;;;;;;;9.00;6.37;;;2.00;99.90;;;;;;5016624;28;20205;-69
2024/01/28 00:28:08;;;;;;;8.90;7.70;;;;;;;;;;5021405;28;20775;-69
2024/01/28 00:30:37;;;;;;;11.70;7.77;;;;;;;;;;5023079;28;20226;-69
2024/01/28 00:33:04;;;;;;;7.73;6.50;;;1.90;99.90;;;;;;5002373;28;20299;-69
2024/01/28 00:35:31;;;;;;;6.10;5.50;;;2.00;99.90;;;;;;5021496;28;20205;-69
2024/01/28 00:37:59;;;;;;;9.83;6.17;;;2.00;99.90;;;;;;5031943;28;20220;-69
2024/01/28 00:40:26;;;;;;;8.53;5.67;;;1.90;99.90;;;;;;5034418;28;20882;-69
2024/01/28 00:42:53;;;;;;;5.77;5.17;;;2.00;99.90;;;;;;5033584;28;20695;-69
2024/01/28 00:45:20;;;;;;;9.23;5.57;;;1.90;99.90;;;;;;5027907;28;20658;-69
2024/01/28 00:47:48;;;;;;;5.00;4.50;;;1.90;99.90;;;;;;5018842;28;20302;-69
2024/01/28 00:50:15;;;;;;;4.47;4.17;;;2.00;99.90;;;;;;5012332;28;20209;-69
2024/01/28 00:52:43;;;;;;;5.07;4.70;;;1.80;99.90;;;;;;5002369;28;20216;-70
2024/01/28 00:55:11;;;;;;;5.03;4.73;;;1.90;99.90;;;;;;5020692;28;20204;-69
2024/01/28 00:57:38;;;;;;;4.90;4.43;;;1.90;99.90;;;;;;5029452;28;20225;-69
2024/01/28 01:00:06;;;;;;;9.53;5.03;;;1.80;99.90;;;;;;5034481;28;20204;-69
2024/01/28 01:02:33;;;;;;;5.33;4.60;;;;;;;;;;5033638;28;20208;-69
2024/01/28 01:05:02;;;;;;;5.60;5.10;;;1.80;99.90;;;;;;5028651;28;20262;-69
2024/01/28 01:07:29;;;;;;;5.17;4.57;;;1.80;99.90;;;;;;5027324;28;20247;-69
2024/01/28 01:09:57;;;;;;;4.63;4.23;;;1.90;99.90;;;;;;5015264;28;20259;-70
2024/01/28 01:12:24;;;;;;;6.60;3.97;;;;;;;;;;5013472;28;20231;-70
2024/01/28 01:14:51;;;;;;;4.87;4.00;;;;;;;;;;5019099;28;20208;-69
2024/01/28 01:17:19;;;;;;;6.40;3.73;;;2.40;99.90;;;;;;5017699;28;20227;-69
2024/01/28 01:19:46;;;;;;;4.13;3.77;;;1.90;99.90;;;;;;5033718;28;20205;-68
2024/01/28 01:22:19;;;;;;;5.10;3.70;;;;;;;;;;5032911;28;20208;-68
2024/01/28 01:24:46;;;;;;;4.83;4.40;;;;;;;;;;5029585;28;20252;-68
2024/01/28 01:27:17;;;;;;;4.63;4.20;;;;;;;;;;5009488;28;20344;-68
2024/01/28 01:29:44;;;;;;;4.27;3.87;;;2.20;99.90;;;;;;5012942;28;20205;-68
2024/01/28 01:32:11;;;;;;;5.13;4.17;;;2.20;99.90;;;;;;5014590;28;20297;-68
2024/01/28 01:34:38;;;;;;;6.90;4.80;;;2.10;99.90;;;;;;5020539;28;20564;-68
2024/01/28 01:37:05;;;;;;;4.50;4.10;;;2.00;99.90;;;;;;5013797;28;20224;-68
2024/01/28 01:39:34;;;;;;;3.87;3.47;;;2.10;99.90;;;;;;5012285;28;20209;-68
2024/01/28 01:42:01;;;;;;;3.43;3.03;;;2.10;99.90;;;;;;5012987;28;20208;-69
2024/01/28 01:44:28;;;;;;;3.43;3.13;;;2.10;99.90;;;;;;5021584;28;20262;-68
2024/01/28 01:46:55;;;;;;;3.93;3.40;;;2.10;99.90;;;;;;4999803;28;20288;-68
2024/01/28 01:49:22;;;;;;;3.93;3.60;;;2.00;99.90;;;;;;5013434;28;20681;-68
2024/01/28 01:51:49;;;;;;;3.37;2.80;;;1.90;99.90;;;;;;5017563;28;20248;-68
2024/01/28 01:54:17;;;;;;;3.63;3.17;;;2.00;99.90;;;;;;5018946;28;20205;-68
2024/01/28 01:56:46;;;;;;;4.87;3.40;;;1.90;99.90;;;;;;5012999;28;20313;-68
2024/01/28 01:59:13;;;;;;;2.90;2.57;;;1.90;99.90;;;;;;5013387;28;20256;-68
2024/01/28 02:01:40;;;;;;;3.63;3.33;;;1.90;99.90;;;;;;5011505;28;20636;-66
2024/01/28 02:04:07;;;;;;;3.53;3.23;;;2.00;99.90;;;;;;5022959;28;20197;-66
2024/01/28 02:06:34;;;;;;;4.37;2.57;;;2.00;99.90;;;;;;5032695;28;20286;-66
2024/01/28 02:09:01;;;;;;;4.17;3.10;;;1.90;99.90;;;;;;5016381;28;20670;-66
2024/01/28 02:11:29;;;;;;;3.33;2.90;;;2.00;99.90;;;;;;5006390;28;20883;-66
2024/01/28 02:13:58;;;;;;;4.43;3.33;;;;;;;;;;5019110;28;20201;-66
2024/01/28 02:16:26;;;;;;;3.00;2.80;;;;;;;;;;5018215;28;20287;-66
2024/01/28 02:18:52;;;;;;;4.50;2.50;;;1.90;99.90;;;;;;5013421;28;20212;-66
2024/01/28 02:21:20;;;;;;;3.37;3.00;;;1.90;99.90;;;;;;5011028;28;20205;-66
2024/01/28 02:23:49;;;;;;;2.27;2.07;;;1.80;99.90;;;;;;5020048;28;20268;-66
2024/01/28 02:26:16;;;;;;;3.57;2.53;;;1.90;99.90;;;;;;5032005;28;20209;-66
2024/01/28 02:28:42;;;;;;;4.20;3.23;;;1.90;99.90;;;;;;5016627;28;20673;-67
2024/01/28 02:31:10;;;;;;;5.37;2.70;;;;;;;;;;5006065;28;20228;-66
2024/01/28 02:33:37;;;;;;;5.57;3.60;;;1.80;99.90;;;;;;5019417;28;20893;-66
2024/01/28 02:36:04;;;;;;;4.30;3.10;;;1.90;99.90;;;;;;5030034;28;20200;-66
2024/01/28 02:38:31;;;;;;;4.07;3.37;;;1.80;99.90;;;;;;5031712;28;20224;-66
2024/01/28 02:41:00;;;;;;;7.73;4.40;;;1.70;99.90;;;;;;5032164;28;20212;-66
2024/01/28 02:43:27;;;;;;;4.80;3.07;;;1.80;99.90;;;;;;5020162;28;20264;-66
2024/01/28 02:45:54;;;;;;;2.83;2.30;;;1.80;99.90;;;;;;5013999;28;20209;-66
2024/01/28 02:48:21;;;;;;;3.10;2.50;;;2.00;99.90;;;;;;5003367;28;20225;-66
2024/01/28 02:50:48;;;;;;;7.43;3.67;;;2.00;99.90;;;;;;5011807;28;20202;-66
2024/01/28 02:53:15;;;;;;;3.50;2.67;;;2.00;99.90;;;;;;5019487;28;20596;-66
2024/01/28 02:55:42;;;;;;;2.97;2.70;;;2.10;99.90;;;;;;5023657;28;20196;-66
2024/01/28 02:58:10;;;;;;;1.90;1.80;;;2.00;99.90;;;;;;5031785;28;20228;-66
2024/01/28 03:00:37;;;;;;;2.37;1.63;;;2.20;99.90;;;;;;5021909;28;20197;-66
2024/01/28 03:03:05;;;;;;;2.20;2.00;;;2.20;99.90;;;;;;5016657;28;20212;-66
2024/01/28 03:05:32;;;;;;;1.50;1.40;;;2.20;99.90;;;;;;5011973;28;20678;-66
2024/01/28 03:07:59;;;;;;;3.20;1.90;;;2.10;99.90;;;;;;5011564;28;20291;-66
2024/01/28 03:10:26;;;;;;;2.30;1.77;;;2.10;99.90;;;;;;5011205;28;20213;-66
2024/01/28 03:12:53;;;;;;;2.80;2.10;;;2.20;99.90;;;;;;5004860;28;20308;-66
2024/01/28 03:15:22;;;;;;;2.57;2.13;;;2.00;99.90;;;;;;5012489;28;20340;-66
2024/01/28 03:17:49;;;;;;;2.93;2.00;;;2.10;99.90;;;;;;5012153;28;20794;-67
2024/01/28 03:20:19;;;;;;;2.87;2.67;;;2.20;99.90;;;;;;5012359;28;20205;-67
2024/01/28 03:22:46;;;;;;;2.83;1.77;;;2.10;99.90;;;;;;5010903;28;20201;-66
2024/01/28 03:25:15;;;;;;;2.13;1.50;;;2.10;99.90;;;;;;5019346;28;20204;-66
2024/01/28 03:27:42;;;;;;;2.33;1.93;;;2.20;99.90;;;;;;5026817;28;20224;-66
2024/01/28 03:30:10;;;;;;;2.97;2.43;;;2.20;99.90;;;;;;5031863;28;20204;-66
2024/01/28 03:32:38;;;;;;;1.80;1.67;;;2.20;99.90;;;;;;5018199;28;20233;-66
2024/01/28 03:35:05;;;;;;;2.73;1.10;;;2.10;99.90;;;;;;5029530;28;20671;-66
2024/01/28 03:37:32;;;;;;;1.77;1.23;;;2.00;99.90;;;;;;5021078;28;20445;-69
2024/01/28 03:39:59;;;;;;;0.70;0.67;;;1.90;99.90;;;;;;5026798;28;20200;-66
2024/01/28 03:42:26;;;;;;;2.77;0.97;;;1.60;99.90;;;;;;4995966;28;20744;-66
2024/01/28 03:44:53;;;;;;;1.47;1.20;;;1.20;99.90;;;;;;4992576;28;20206;-66
2024/01/28 03:47:20;;;;;;;2.13;1.73;;;1.70;99.90;;;;;;4992161;28;20230;-67
2024/01/28 03:49:48;;;;;;;4.63;1.10;;;1.20;99.90;;;;;;5014702;28;20565;-66
2024/01/28 03:52:18;;;;;;;1.53;1.17;;;1.70;99.90;;;;;;5022275;28;20227;-66
2024/01/28 03:54:45;;;;;;;1.37;1.37;;;1.80;99.90;;;;;;5031343;28;20208;-66
2024/01/28 03:57:12;;;;;;;1.10;1.00;;;1.80;99.90;;;;;;5031353;28;20722;-66
2024/01/28 03:59:40;;;;;;;1.70;1.60;;;1.60;99.90;;;;;;5031465;28;20626;-66
2024/01/28 04:02:08;;;;;;;6.97;3.93;;;1.60;99.90;;;;;;5017895;28;20200;-67
2024/01/28 04:04:35;;;;;;;8.33;4.90;;;;;;;;;;5028429;28;20287;-66
2024/01/28 04:07:04;;;;;;;5.70;4.20;;;1.60;99.90;;;;;;5035398;28;20227;-66
2024/01/28 04:09:32;;;;;;;5.83;5.27;;;;;;;;;;5032150;28;20217;-66
2024/01/28 04:11:59;;;;;;;8.27;5.67;;;1.60;99.90;;;;;;5004131;28;20304;-67
2024/01/28 04:14:27;;;;;;;9.57;5.97;;;;;;;;;;5013261;28;20230;-66
2024/01/28 04:16:54;;;;;;;6.90;4.97;;;1.60;99.90;;;;;;5026829;28;20231;-66
2024/01/28 04:19:21;;;;;;;10.30;6.97;;;;;;;;;;5033090;28;20270;-66
2024/01/28 04:21:48;;;;;;;8.13;6.90;;;1.60;99.90;;;;;;5025007;28;20193;-66
2024/01/28 04:24:17;;;;;;;10.70;8.30;;;;;;;;;;5015393;28;20206;-65
2024/01/28 04:26:44;;;;;;;12.13;7.97;;;;;;;;;;5014435;28;20225;-66
2024/01/28 04:29:11;;;;;;;8.60;7.43;;;1.80;99.90;;;;;;5023371;28;20252;-66
2024/01/28 04:31:42;;;;;;;11.83;9.40;;;1.90;99.90;;;;;;5016164;28;20315;-67
2024/01/28 04:34:10;;;;;;;9.40;8.10;;;;;;;;;;5015593;28;20296;-66
2024/01/28 04:36:37;;;;;;;11.33;10.23;;;;;;;;;;5015643;28;20311;-66
2024/01/28 04:39:05;;;;;;;13.03;9.17;;;;;;;;;;5022385;28;20211;-66
2024/01/28 04:41:34;;;;;;;12.97;8.83;;;;;;;;;;5014294;28;20221;-66
2024/01/28 04:44:01;;;;;;;9.97;8.97;;;1.90;99.90;;;;;;4995751;28;20209;-66
2024/01/28 04:46:29;;;;;;;13.20;8.87;;;;;;;;;;4995829;28;20329;-66
2024/01/28 04:48:56;;;;;;;14.03;8.23;;;;;;;;;;4996321;28;20213;-66
2024/01/28 04:51:23;;;;;;;9.10;7.47;;;;;;;;;;5009467;28;20747;-66
2024/01/28 04:53:50;;;;;;;9.10;7.87;;;1.70;99.90;;;;;;5026116;28;20192;-66
2024/01/28 04:56:17;;;;;;;10.93;7.53;;;1.70;99.90;;;;;;5034545;28;20239;-65
2024/01/28 04:58:46;;;;;;;13.00;8.43;;;1.60;99.90;;;;;;5034524;28;20247;-66
2024/01/28 05:01:13;;;;;;;12.77;10.53;;;1.60;99.90;;;;;;5027356;28;20202;-66
2024/01/28 05:03:40;;;;;;;10.50;9.20;;;1.60;99.90;;;;;;5010481;28;20213;-66
2024/01/28 05:06:07;;;;;;;10.50;8.90;;;1.70;99.90;;;;;;5026332;28;20199;-66
2024/01/28 05:08:35;;;;;;;11.73;8.43;;;1.30;99.90;;;;;;5020444;28;20324;-66
2024/01/28 05:11:02;;;;;;;15.20;10.23;;;1.50;99.90;;;;;;5013897;28;20205;-66
2024/01/28 05:13:29;;;;;;;13.20;9.23;;;;;;;;;;5024833;28;20217;-66
2024/01/28 05:15:57;;;;;;;11.67;8.67;;;1.50;99.90;;;;;;5027501;28;20203;-66
2024/01/28 05:18:24;;;;;;;12.47;9.20;;;1.60;99.90;;;;;;5018268;28;20233;-66
2024/01/28 05:20:52;;;;;;;12.17;9.77;;;1.60;99.90;;;;;;5033742;28;20247;-66
2024/01/28 05:23:19;;;;;;;13.47;9.87;;;1.40;99.90;;;;;;4995438;28;20281;-66
2024/01/28 05:25:46;;;;;;;12.67;9.67;;;1.60;99.90;;;;;;4998241;28;20209;-66
2024/01/28 05:28:14;;;;;;;14.10;9.67;;;1.50;99.90;;;;;;5008196;28;20678;-66
2024/01/28 05:30:41;;;;;;;17.00;10.70;;;1.30;99.90;;;;;;5025742;28;20247;-66
2024/01/28 05:33:10;;;;;;;12.00;10.27;;;1.70;99.90;;;;;;4996038;28;20226;-66
2024/01/28 05:35:37;;;;;;;13.03;10.57;;;1.50;99.90;;;;;;4998859;28;20274;-66
2024/01/28 05:38:04;;;;;;;13.23;10.67;;;1.50;99.90;;;;;;5010964;28;20235;-66
2024/01/28 05:40:31;;;;;;;13.67;11.43;;;1.50;99.90;;;;;;5015275;28;20204;-66
2024/01/28 05:42:58;;;;;;;16.07;11.67;;;1.50;99.90;;;;;;5015363;28;20197;-66
2024/01/28 05:45:25;;;;;;;17.90;12.63;;;1.40;99.90;;;;;;5013840;28;20209;-66
2024/01/28 05:47:52;;;;;;;19.10;12.73;;;1.50;99.90;;;;;;5013810;28;20227;-66
2024/01/28 05:50:21;;;;;;;19.00;12.57;;;;;;;;;;5013628;28;20687;-66
2024/01/28 05:52:48;;;;;;;16.20;12.30;;;1.80;99.90;;;;;;5004469;28;20229;-66
2024/01/28 05:55:15;;;;;;;19.80;12.77;;;1.40;99.90;;;;;;5013034;28;20586;-66
2024/01/28 05:57:42;;;;;;;20.50;12.03;;;1.40;99.90;;;;;;5013586;28;20231;-66
2024/01/28 06:00:11;;;;;;;17.27;12.37;;;1.40;99.90;;;;;;5012759;28;20201;-66
2024/01/28 06:02:38;;;;;;;17.57;12.57;;;1.50;99.90;;;;;;5012156;28;20200;-65
2024/01/28 06:05:06;;;;;;;19.33;10.83;;;1.40;99.90;;;;;;5013106;28;20296;-67
2024/01/28 06:07:34;;;;;;;15.43;11.90;;;1.50;99.90;;;;;;5013094;28;20734;-66
2024/01/28 06:10:01;;;;;;;12.60;10.63;;;1.50;99.90;;;;;;5017467;28;20207;-66
2024/01/28 06:12:28;;;;;;;13.73;10.87;;;1.50;99.90;;;;;;5012139;28;20217;-66
2024/01/28 06:14:57;;;;;;;14.17;10.57;;;1.40;99.90;;;;;;5013108;28;20205;-66
2024/01/28 06:17:24;;;;;;;10.00;8.33;;;1.50;99.90;;;;;;5012114;28;20246;-66
2024/01/28 06:19:52;;;;;;;7.60;6.83;;;1.50;99.90;;;;;;5014971;28;20622;-66
2024/01/28 06:22:19;;;;;;;11.70;7.17;;;1.30;99.90;;;;;;5012984;28;20295;-66
2024/01/28 06:24:48;;;;;;;25.37;14.33;;;;;;;;;;5012024;28;20208;-66
2024/01/28 06:27:19;;;;;;;52.97;23.50;;;1.10;99.90;;;;;;5012295;28;20233;-65
2024/01/28 06:29:47;;;;;;;17.63;11.00;;;1.20;99.90;;;;;;5014965;28;20671;-66
2024/01/28 06:32:18;;;;;;;13.63;8.07;;;1.10;99.90;;;;;;5011949;28;20247;-66
2024/01/28 06:34:45;;;;;;;12.50;7.93;;;1.20;99.90;;;;;;5011493;28;20228;-66
2024/01/28 06:37:17;;;;;;;10.87;7.40;;;1.00;99.90;;;;;;5012336;28;20228;-66
2024/01/28 06:39:49;;;;;;;10.17;7.63;;;1.00;99.90;;;;;;5012486;28;20217;-66
2024/01/28 06:42:22;;;;;;;9.87;7.87;;;1.10;99.90;;;;;;5011331;28;20225;-65
2024/01/28 06:44:49;;;;;;;10.60;8.77;;;1.10;99.90;;;;;;5012286;28;20754;-68
2024/01/28 06:47:16;;;;;;;9.87;8.90;;;1.10;99.90;;;;;;5011841;28;20228;-68
2024/01/28 06:49:45;;;;;;;10.97;9.03;;;1.10;99.90;;;;;;5012388;28;20195;-68
2024/01/28 06:52:12;;;;;;;10.90;9.43;;;1.10;99.90;;;;;;5011208;28;20220;-68
2024/01/28 06:54:40;;;;;;;14.13;10.37;;;1.20;99.90;;;;;;5012264;28;20205;-68
2024/01/28 06:57:07;;;;;;;13.40;10.27;;;0.50;99.90;;;;;;5012279;28;20343;-68
2024/01/28 06:59:36;;;;;;;13.57;11.10;;;1.10;99.90;;;;;;5012296;28;20682;-68
2024/01/28 07:02:03;;;;;;;17.93;12.77;;;1.20;99.90;;;;;;5011495;28;20204;-68
2024/01/28 07:04:30;;;;;;;19.60;13.53;;;1.20;99.90;;;;;;5012464;28;20204;-68
2024/01/28 07:06:57;;;;;;;15.93;12.03;;;1.10;99.90;;;;;;5012174;28;20260;-68
2024/01/28 07:09:24;;;;;;;17.57;14.67;;;1.20;99.90;;;;;;5012122;28;20205;-68
2024/01/28 07:11:51;;;;;;;16.90;12.53;;;1.30;99.90;;;;;;5011405;28;20590;-68
2024/01/28 07:14:18;;;;;;;20.20;14.63;;;1.10;99.90;;;;;;5011499;28;20224;-67
2024/01/28 07:16:47;;;;;;;19.57;14.63;;;1.10;99.90;;;;;;5012204;28;20232;-68
2024/01/28 07:19:14;;;;;;;23.77;14.53;;;1.20;99.90;;;;;;5011598;28;20214;-68
2024/01/28 07:21:41;;;;;;;19.13;15.13;;;1.20;99.90;;;;;;5011169;28;20246;-68
2024/01/28 07:24:08;;;;;;;21.27;14.97;;;1.30;99.90;;;;;;5011711;28;20200;-68
2024/01/28 07:26:35;;;;;;;20.47;13.40;;;1.30;99.90;;;;;;5011684;28;20230;-68
2024/01/28 07:29:03;;;;;;;25.73;16.67;;;1.30;99.90;;;;;;5012019;28;20240;-66
2024/01/28 07:31:30;;;;;;;27.13;16.20;;;1.30;99.90;;;;;;5011089;28;20201;-66
2024/01/28 07:33:58;;;;;;;24.37;16.03;;;1.20;99.90;;;;;;5011676;28;20646;-66
2024/01/28 07:36:25;;;;;;;25.33;18.13;;;1.30;99.90;;;;;;5011328;28;20220;-66
2024/01/28 07:38:53;;;;;;;22.03;16.90;;;1.20;99.90;;;;;;5010968;28;20602;-66
2024/01/28 07:41:20;;;;;;;28.70;16.70;;;1.30;99.90;;;;;;5010583;28;20208;-66
2024/01/28 07:43:47;;;;;;;30.03;17.03;;;1.50;99.90;;;;;;5011628;28;20677;-66
2024/01/28 07:46:14;;;;;;;22.67;15.77;;;1.50;99.90;;;;;;5004907;28;20239;-66
2024/01/28 07:48:42;;;;;;;21.70;14.70;;;1.50;99.90;;;;;;5009381;28;20205;-66
2024/01/28 07:51:11;;;;;;;20.90;15.57;;;1.50;99.90;;;;;;5011488;28;20724;-66
2024/01/28 07:53:38;;;;;;;21.93;14.97;;;1.50;99.90;;;;;;5009860;28;20260;-65
2024/01/28 07:56:06;;;;;;;21.70;16.47;;;1.60;99.90;;;;;;5011623;28;20213;-66
2024/01/28 07:58:33;;;;;;;25.33;16.03;;;1.80;99.90;;;;;;5011501;28;20228;-65
2024/01/28 08:01:01;;;;;;;20.53;14.77;;;1.70;99.90;;;;;;5010724;28;20627;-66
2024/01/28 08:03:28;;;;;;;20.73;14.63;;;1.80;99.90;;;;;;5003335;28;20197;-66
2024/01/28 08:05:55;;;;;;;22.60;16.13;;;1.70;99.90;;;;;;5013169;28;20201;-65
2024/01/28 08:08:23;;;;;;;24.15;17.77;;;1.80;99.90;;;;;;5002451;28;20493;-66
2024/01/28 08:10:50;;;;;;;23.23;15.63;;;1.90;99.90;;;;;;5011745;28;20232;-66
2024/01/28 08:13:19;;;;;;;20.13;14.97;;;2.20;99.90;;;;;;5010929;28;20225;-65
2024/01/28 08:15:46;;;;;;;22.87;14.83;;;2.10;99.90;;;;;;5012087;28;20225;-66
2024/01/28 08:18:13;;;;;;;28.97;15.77;;;1.70;99.90;;;;;;5010906;28;20225;-63
2024/01/28 08:20:40;;;;;;;21.50;14.63;;;2.00;99.90;;;;;;5018245;28;20329;-63
2024/01/28 08:23:07;;;;;;;19.17;13.80;;;2.00;99.90;;;;;;5018215;28;20209;-63
2024/01/28 08:25:36;;;;;;;17.83;15.03;;;;;;;;;;5018654;28;20209;-63
2024/01/28 08:28:03;;;;;;;21.30;15.40;;;;;;;;;;5022683;28;20233;-62
2024/01/28 08:30:30;;;;;;;20.40;14.53;;;2.10;99.90;;;;;;5018479;28;20204;-62
2024/01/28 08:32:57;;;;;;;20.70;14.83;;;2.20;99.90;;;;;;5017563;28;20223;-63
2024/01/28 08:35:24;;;;;;;22.67;15.40;;;2.20;99.90;;;;;;5022367;28;20203;-67
2024/01/28 08:37:51;;;;;;;22.47;15.70;;;;;;;;;;5023467;28;20225;-66
2024/01/28 08:40:19;;;;;;;25.60;16.50;;;2.10;99.90;;;;;;5018116;28;20680;-66
2024/01/28 08:42:47;;;;;;;25.53;15.67;;;2.30;99.90;;;;;;5017748;28;20740;-66
2024/01/28 08:45:15;;;;;;;21.73;16.00;;;2.40;99.90;;;;;;5021176;28;20201;-66
2024/01/28 08:47:41;;;;;;;22.37;17.13;;;2.20;99.90;;;;;;5019509;28;20227;-66
2024/01/28 08:50:09;;;;;;;29.00;19.73;;;2.40;99.90;;;;;;5020665;28;20570;-66
2024/01/28 08:52:36;;;;;;;33.93;22.53;;;2.60;99.90;;;;;;5019682;28;20661;-66
2024/01/28 08:55:03;;;;;;;33.70;20.37;;;2.50;99.90;;;;;;5014563;28;20276;-66
2024/01/28 08:57:31;;;;;;;26.03;18.43;;;2.60;99.90;;;;;;5020377;28;20232;-66
2024/01/28 08:59:59;;;;;;;27.20;17.17;;;2.50;99.90;;;;;;5021781;28;20204;-66
2024/01/28 09:02:26;;;;;;;23.30;16.93;;;2.80;99.90;;;;;;5022107;28;20204;-66
2024/01/28 09:04:53;;;;;;;18.93;14.13;;;;;;;;;;5025354;28;20650;-66
2024/01/28 09:07:21;;;;;;;26.17;16.40;;;2.90;99.90;;;;;;5023164;28;20307;-66
2024/01/28 09:09:48;;;;;;;37.73;20.50;;;2.90;99.90;;;;;;5018946;28;20202;-66
2024/01/28 09:12:15;;;;;;;30.50;18.20;;;2.90;99.90;;;;;;5026513;28;20204;-66
2024/01/28 09:14:42;;;;;;;21.37;16.23;;;2.90;99.90;;;;;;5023436;28;20255;-66
2024/01/28 09:17:10;;;;;;;20.40;15.77;;;3.00;99.90;;;;;;5018150;28;20229;-65
2024/01/28 09:19:37;;;;;;;16.40;13.60;;;3.10;99.90;;;;;;5011373;28;20205;-66
2024/01/28 09:22:05;;;;;;;19.77;14.33;;;2.90;99.90;;;;;;5013511;28;20264;-66
2024/01/28 09:24:32;;;;;;;22.40;14.73;;;2.70;99.90;;;;;;5022347;28;20222;-66
2024/01/28 09:27:01;;;;;;;24.83;16.87;;;2.80;99.90;;;;;;5030224;28;20278;-66
2024/01/28 09:29:30;;;;;;;25.90;17.10;;;2.90;99.90;;;;;;5024316;28;20208;-66
2024/01/28 09:31:59;;;;;;;24.50;15.53;;;3.00;99.90;;;;;;5017319;28;20201;-66
2024/01/28 09:34:28;;;;;;;24.10;15.47;;;2.90;99.90;;;;;;5033422;28;20770;-66
2024/01/28 09:36:55;;;;;;;26.03;16.07;;;3.00;99.90;;;;;;5033913;28;20232;-66
2024/01/28 09:39:22;;;;;;;20.87;15.27;;;2.90;99.90;;;;;;5026931;28;20308;-66
2024/01/28 09:41:55;;;;;;;21.33;15.03;;;3.00;99.90;;;;;;5021311;28;20738;-66
2024/01/28 09:44:22;;;;;;;22.83;14.77;;;2.90;99.90;;;;;;5016059;28;20268;-66
2024/01/28 09:46:50;;;;;;;24.30;16.13;;;2.70;99.90;;;;;;5014071;28;20302;-66
2024/01/28 09:49:18;;;;;;;18.90;15.27;;;2.90;99.90;;;;;;5010526;28;20209;-66
2024/01/28 09:51:46;;;;;;;27.10;15.97;;;;;;;;;;5021099;28;20673;-66
2024/01/28 09:54:13;;;;;;;23.70;16.67;;;2.80;99.90;;;;;;5019828;28;20225;-66
2024/01/28 09:56:41;;;;;;;26.80;17.47;;;;;;;;;;5011706;28;20252;-61
2024/01/28 09:59:09;;;;;;;27.10;18.30;;;;;;;;;;5011550;28;20284;-67
2024/01/28 10:01:37;;;;;;;21.17;16.33;;;2.80;99.90;;;;;;5011952;28;20220;-67
2024/01/28 10:04:04;;;;;;;23.10;16.77;;;3.00;99.90;;;;;;5013252;28;20580;-68
2024/01/28 10:06:31;;;;;;;27.00;17.13;;;2.90;99.90;;;;;;5012761;28;20236;-63
2024/01/28 10:08:59;;;;;;;21.27;15.00;;;2.70;99.90;;;;;;5014947;28;20208;-63
2024/01/28 10:11:27;;;;;;;27.50;15.17;;;2.60;99.90;;;;;;5010221;28;20581;-63
2024/01/28 10:13:54;;;;;;;23.17;17.70;;;2.70;99.90;;;;;;5012317;28;20229;-64
2024/01/28 10:16:24;;;;;;;24.50;17.47;;;2.90;99.90;;;;;;5007870;28;20209;-63
2024/01/28 10:18:51;;;;;;;27.10;16.97;;;3.10;99.90;;;;;;5012324;28;20275;-63
2024/01/28 10:21:19;;;;;;;25.80;17.13;;;3.40;99.90;;;;;;5010868;28;20988;-63
2024/01/28 10:23:46;;;;;;;23.47;16.43;;;3.50;99.90;;;;;;5012151;28;20206;-63
2024/01/28 10:26:16;;;;;;;18.80;14.33;;;3.50;99.90;;;;;;5010412;28;20212;-63
2024/01/28 10:28:44;;;;;;;20.40;14.77;;;;;;;;;;5005257;28;20197;-63
2024/01/28 10:31:11;;;;;;;19.03;14.70;;;3.70;99.90;;;;;;5012032;28;20201;-63
2024/01/28 10:33:38;;;;;;;23.73;15.73;;;3.60;99.90;;;;;;5011011;28;20597;-63
2024/01/28 10:36:06;;;;;;;20.37;14.73;;;;;;;;;;5011604;28;20252;-63
2024/01/28 10:38:34;;;;;;;21.83;14.63;;;3.50;99.90;;;;;;5011227;28;20221;-63
2024/01/28 10:41:02;;;;;;;23.13;16.13;;;3.50;99.90;;;;;;5010319;28;20264;-63
2024/01/28 10:43:37;;;;;;;22.53;15.37;;;3.90;99.90;;;;;;5009702;28;20203;-62
2024/01/28 10:46:07;;;;;;;20.87;15.63;;;3.90;99.90;;;;;;5010026;28;20299;-61
2024/01/28 10:48:38;;;;;;;23.20;15.93;;;4.10;99.90;;;;;;5011990;28;20244;-61
2024/01/28 10:51:07;;;;;;;20.07;14.80;;;3.70;99.90;;;;;;5010799;28;20252;-62
2024/01/28 10:53:34;;;;;;;22.27;14.53;;;3.30;99.90;;;;;;5010223;28;20295;-64
2024/01/28 10:56:02;;;;;;;21.77;15.03;;;3.30;99.90;;;;;;5010127;28;20213;-63
2024/01/28 10:58:30;;;;;;;19.83;16.40;;;3.30;99.90;;;;;;5011063;28;20442;-60
2024/01/28 11:00:57;;;;;;;22.17;15.93;;;3.70;99.90;;;;;;5012348;28;20205;-60
2024/01/28 11:03:25;;;;;;;22.33;15.60;;;3.90;99.90;;;;;;5008524;28;20208;-60
2024/01/28 11:05:52;;;;;;;20.40;15.60;;;3.90;99.90;;;;;;5010024;28;20204;-60
2024/01/28 11:08:20;;;;;;;18.23;13.87;;;4.60;99.90;;;;;;5009860;28;20256;-60
2024/01/28 11:10:48;;;;;;;21.53;14.67;;;4.50;99.90;;;;;;5009599;28;20259;-60
2024/01/28 11:13:15;;;;;;;17.37;13.70;;;4.70;99.90;;;;;;5018871;28;20255;-60
2024/01/28 11:15:44;;;;;;;19.53;13.43;;;4.40;99.90;;;;;;5011269;28;20207;-60
2024/01/28 11:18:13;;;;;;;19.80;15.23;;;;;;;;;;5007705;28;20302;-60
2024/01/28 11:20:40;;;;;;;18.13;13.27;;;4.40;99.90;;;;;;5010770;28;20318;-60
2024/01/28 11:23:15;;;;;;;18.97;15.10;;;;;;;;;;5017988;28;20672;-60
2024/01/28 11:25:43;;;;;;;19.63;15.20;;;4.30;99.90;;;;;;5010290;28;20295;-60
2024/01/28 11:28:13;;;;;;;18.37;15.33;;;4.00;99.90;;;;;;5020006;28;20220;-60
2024/01/28 11:30:41;;;;;;;24.80;18.43;;;3.90;99.90;;;;;;5022653;28;20639;-60
2024/01/28 11:33:12;;;;;;;21.77;16.07;;;3.90;99.90;;;;;;5011136;28;20678;-60
2024/01/28 11:35:41;;;;;;;23.23;16.27;;;4.00;99.90;;;;;;5009422;28;20233;-60
2024/01/28 11:38:10;;;;;;;21.93;15.87;;;3.90;99.90;;;;;;5019057;28;20236;-60
2024/01/28 11:40:38;;;;;;;23.97;16.60;;;;;;;;;;5015777;28;20688;-60
2024/01/28 11:43:07;;;;;;;27.30;17.10;;;3.80;99.90;;;;;;5005005;28;20210;-60
2024/01/28 11:45:35;;;;;;;21.40;16.33;;;3.80;99.90;;;;;;5011568;28;20596;-60
2024/01/28 11:48:07;;;;;;;24.67;17.10;;;3.90;99.90;;;;;;5011502;28;20731;-61
2024/01/28 11:50:36;;;;;;;19.03;15.73;;;3.80;99.90;;;;;;5004374;28;20284;-68
2024/01/28 11:53:05;;;;;;;22.10;15.10;;;4.00;99.90;;;;;;5010785;28;20596;-64
2024/01/28 11:55:33;;;;;;;19.70;13.97;;;3.90;99.90;;;;;;5012871;28;20804;-64
2024/01/28 11:58:00;;;;;;;22.20;16.67;;;3.80;99.90;;;;;;5010730;28;20229;-62
2024/01/28 12:00:27;;;;;;;21.03;15.67;;;;;;;;;;5012479;28;20201;-65
2024/01/28 12:02:54;;;;;;;22.93;16.60;;;4.10;99.90;;;;;;5010574;28;20669;-66
2024/01/28 12:05:21;;;;;;;20.77;16.07;;;3.70;99.90;;;;;;5011598;28;20275;-65
2024/01/28 12:07:53;;;;;;;22.80;15.57;;;4.00;99.90;;;;;;5011656;28;20288;-62
2024/01/28 12:10:21;;;;;;;22.93;15.87;;;4.40;99.90;;;;;;5009826;28;20632;-64
2024/01/28 12:12:49;;;;;;;24.03;17.20;;;4.20;99.90;;;;;;5009082;28;20263;-68
2024/01/28 12:15:17;;;;;;;24.60;16.67;;;4.60;99.90;;;;;;5011427;28;20233;-64
2024/01/28 12:17:47;;;;;;;23.57;15.77;;;;;;;;;;5011004;28;20323;-63
2024/01/28 12:20:22;;;;;;;22.17;16.40;;;4.40;99.90;;;;;;5005747;28;20206;-67
2024/01/28 12:22:51;;;;;;;25.03;17.33;;;;;;;;;;5010060;28;20664;-65
2024/01/28 12:25:22;;;;;;;22.63;16.80;;;4.20;99.90;;;;;;5012733;28;20201;-63
2024/01/28 12:27:50;;;;;;;22.50;16.20;;;4.30;99.90;;;;;;5010143;28;20217;-64
2024/01/28 12:30:18;;;;;;;27.37;16.17;;;4.50;99.90;;;;;;5014982;28;20215;-63
2024/01/28 12:32:45;;;;;;;23.47;16.90;;;4.40;99.90;;;;;;5006017;28;20205;-63
2024/01/28 12:35:13;;;;;;;22.93;16.67;;;4.50;99.90;;;;;;5014950;28;20225;-63
2024/01/28 12:37:41;;;;;;;24.27;16.93;;;4.30;99.90;;;;;;5013525;28;20231;-62
2024/01/28 12:40:11;;;;;;;24.33;18.50;;;4.20;99.90;;;;;;5018109;28;20212;-65
2024/01/28 12:42:40;;;;;;;25.07;17.00;;;4.20;99.90;;;;;;5013039;28;20211;-63
2024/01/28 12:45:08;;;;;;;22.73;16.27;;;4.10;99.90;;;;;;5014370;28;20227;-66
2024/01/28 12:47:37;;;;;;;24.83;16.67;;;4.30;99.90;;;;;;5014704;28;20221;-64
2024/01/28 12:50:05;;;;;;;28.20;18.47;;;;;;;;;;5014945;28;20240;-65
2024/01/28 12:52:32;;;;;;;20.43;16.13;;;4.40;99.90;;;;;;5013776;28;20204;-65
2024/01/28 12:54:59;;;;;;;23.67;17.50;;;4.40;99.90;;;;;;5014807;28;20256;-66
2024/01/28 12:57:28;;;;;;;23.23;16.63;;;4.40;99.90;;;;;;5023945;28;20232;-66
2024/01/28 12:59:55;;;;;;;24.43;16.07;;;4.90;99.90;;;;;;5019410;28;20275;-65